Bettendorf, IA (52722)

8:44 AM CDT on August 24, 2016 (GMT -0500)
Wyndam Hills | | Change Station

Elev 666 ft 41.56 °N, 90.46 °W | Updated 1 second ago

Mostly Cloudy
Mostly Cloudy
72.0 °F
Feels Like 72.0 °F
N
0.9
Wind Variable Wind from ESE
Gusts 2.5 mph

Today
High -- | Low -- °F
--% Chance of Precip.
Yesterday
High -- | Low -- °F
Precip. -- in
Pressure 29.93 in
Visibility 10.0 miles
Clouds Few 800 ft
Scattered Clouds 6000 ft
Mostly Cloudy 8500 ft
Dew Point 71 °F
Humidity 96%
Rainfall 2.41 in
Snow Depth Not available.
6:20 AM 7:47 PM
Waning Gibbous, 57% visible
SPECI KDVN 241329Z AUTO 15008KT 10SM FEW008 SCT060 BKN085 22/22 A2993 RMK AO2 RAB06E23 P0000 T02220217
Pressure 29.93 in
Visibility 10.0 miles
Clouds Few 800 ft
Scattered Clouds 6000 ft
Mostly Cloudy 8500 ft
Dew Point 71 °F
Humidity 96%
Rainfall 2.41 in
Snow Depth Not available.
6:20 AM 7:47 PM
Waning Gibbous, 57% visible
SPECI KDVN 241329Z AUTO 15008KT 10SM FEW008 SCT060 BKN085 22/22 A2993 RMK AO2 RAB06E23 P0000 T02220217

10-Day Weather Forecast

Almanac

Astronomy

Aug. 24, 2016 Rise Set
Actual Time
Civil Twilight
Nautical Twilight
Astronomical Twilight
Moon
Length of Visible Light
Length of Day
Tomorrow will be .
, % of the Moon is Illuminated

Today's Extremes

State Highs State Lows

Community

WunderPhotos

Upload Photos

1,934,598 photos uploaded!

WunderBlog® & News

Nearby

Air Quality

  Air Quality AQ Index Pollutant
Not available.

Snow Depth

Station Depth Elevation

Earthquake Activity

City Distance Mag. Time & Date
Minimum magnitude displayed is 2.5.

Coastal Water Temperatures

Place Temperature

Stations

Nearby Weather Stations

Station Location Temp. Windchill Dew Point Humidity Wind Precip. Elev Updated Type
                   

Watches & Warnings

There are currently no watches in effect.